sensor_id;sensor_type;location;lat;lon;timestamp;pressure;altitude;pressure_sealevel;temperature;humidity
45323;BME280;31382;50.200;8.674;2023-03-04T00:00:38;101125.22;;;3.10;59.29
45323;BME280;31382;50.200;8.674;2023-03-04T00:05:45;101122.06;;;3.05;59.70
45323;BME280;31382;50.200;8.674;2023-03-04T00:10:47;101135.66;;;3.00;59.52
45323;BME280;31382;50.200;8.674;2023-03-04T00:15:48;101123.88;;;2.91;59.18
45323;BME280;31382;50.200;8.674;2023-03-04T00:20:50;101131.31;;;2.86;59.82
45323;BME280;31382;50.200;8.674;2023-03-04T00:25:51;101126.22;;;2.83;60.24
45323;BME280;31382;50.200;8.674;2023-03-04T00:30:53;101133.66;;;2.78;59.53
45323;BME280;31382;50.200;8.674;2023-03-04T00:35:54;101127.81;;;2.73;59.69
45323;BME280;31382;50.200;8.674;2023-03-04T00:40:56;101131.41;;;2.72;60.39
45323;BME280;31382;50.200;8.674;2023-03-04T00:45:57;101137.91;;;2.68;60.50
45323;BME280;31382;50.200;8.674;2023-03-04T00:51:00;101133.56;;;2.67;60.55
45323;BME280;31382;50.200;8.674;2023-03-04T00:56:01;101129.44;;;2.63;60.07
45323;BME280;31382;50.200;8.674;2023-03-04T01:01:02;101126.53;;;2.66;60.00
45323;BME280;31382;50.200;8.674;2023-03-04T01:06:04;101120.81;;;2.72;60.78
45323;BME280;31382;50.200;8.674;2023-03-04T01:11:06;101116.97;;;2.76;60.58
45323;BME280;31382;50.200;8.674;2023-03-04T01:16:07;101114.13;;;2.79;60.48
45323;BME280;31382;50.200;8.674;2023-03-04T01:21:10;101112.53;;;2.76;60.22
45323;BME280;31382;50.200;8.674;2023-03-04T01:26:11;101107.09;;;2.78;60.40
45323;BME280;31382;50.200;8.674;2023-03-04T01:31:13;101095.63;;;2.77;60.93
45323;BME280;31382;50.200;8.674;2023-03-04T01:36:14;101089.38;;;2.66;61.31
45323;BME280;31382;50.200;8.674;2023-03-04T01:41:18;101084.91;;;2.79;61.12
45323;BME280;31382;50.200;8.674;2023-03-04T01:46:23;101068.66;;;2.96;61.41
45323;BME280;31382;50.200;8.674;2023-03-04T01:51:24;101063.53;;;3.06;61.69
45323;BME280;31382;50.200;8.674;2023-03-04T01:56:34;101054.88;;;3.28;61.07
45323;BME280;31382;50.200;8.674;2023-03-04T02:01:37;101048.09;;;3.48;60.71
45323;BME280;31382;50.200;8.674;2023-03-04T02:06:39;101042.25;;;3.67;60.70
45323;BME280;31382;50.200;8.674;2023-03-04T02:11:42;101040.47;;;3.79;61.00
45323;BME280;31382;50.200;8.674;2023-03-04T02:16:45;101039.78;;;3.88;60.58
45323;BME280;31382;50.200;8.674;2023-03-04T02:21:47;101029.81;;;4.03;60.81
45323;BME280;31382;50.200;8.674;2023-03-04T02:26:48;101028.25;;;4.12;60.63
45323;BME280;31382;50.200;8.674;2023-03-04T02:31:51;101028.28;;;4.23;60.34
45323;BME280;31382;50.200;8.674;2023-03-04T02:36:54;101030.38;;;4.31;60.28
45323;BME280;31382;50.200;8.674;2023-03-04T02:41:56;101019.13;;;4.39;60.13
45323;BME280;31382;50.200;8.674;2023-03-04T02:46:59;101012.81;;;4.40;60.26
45323;BME280;31382;50.200;8.674;2023-03-04T02:52:02;101015.25;;;4.43;60.50
45323;BME280;31382;50.200;8.674;2023-03-04T02:57:06;101010.41;;;4.48;60.06
45323;BME280;31382;50.200;8.674;2023-03-04T03:02:08;101008.97;;;4.55;60.14
45323;BME280;31382;50.200;8.674;2023-03-04T03:07:10;101013.69;;;4.63;59.66
45323;BME280;31382;50.200;8.674;2023-03-04T03:12:11;101002.06;;;4.64;59.92
45323;BME280;31382;50.200;8.674;2023-03-04T03:17:13;100997.81;;;4.61;59.98
45323;BME280;31382;50.200;8.674;2023-03-04T03:22:14;101004.13;;;4.60;60.00
45323;BME280;31382;50.200;8.674;2023-03-04T03:27:16;100999.75;;;4.59;60.08
45323;BME280;31382;50.200;8.674;2023-03-04T03:32:17;101001.47;;;4.60;60.15
45323;BME280;31382;50.200;8.674;2023-03-04T03:37:18;100999.16;;;4.67;60.18
45323;BME280;31382;50.200;8.674;2023-03-04T03:42:20;100998.06;;;4.69;60.36
45323;BME280;31382;50.200;8.674;2023-03-04T03:47:21;100994.78;;;4.77;59.94
45323;BME280;31382;50.200;8.674;2023-03-04T03:52:23;100999.13;;;4.89;59.70
45323;BME280;31382;50.200;8.674;2023-03-04T03:57:24;101002.03;;;4.97;59.40
45323;BME280;31382;50.200;8.674;2023-03-04T04:02:26;100992.34;;;5.08;59.67
45323;BME280;31382;50.200;8.674;2023-03-04T04:07:27;100991.00;;;5.13;59.40
45323;BME280;31382;50.200;8.674;2023-03-04T04:12:29;100985.28;;;5.18;59.49
45323;BME280;31382;50.200;8.674;2023-03-04T04:17:30;100992.28;;;5.19;59.49
45323;BME280;31382;50.200;8.674;2023-03-04T04:22:32;100988.78;;;5.19;59.60
45323;BME280;31382;50.200;8.674;2023-03-04T04:27:34;100987.22;;;5.16;59.53
45323;BME280;31382;50.200;8.674;2023-03-04T04:32:35;100987.22;;;5.16;59.46
45323;BME280;31382;50.200;8.674;2023-03-04T04:37:37;100988.22;;;5.04;59.63
45323;BME280;31382;50.200;8.674;2023-03-04T04:42:38;100983.50;;;4.96;59.75
45323;BME280;31382;50.200;8.674;2023-03-04T04:47:39;100993.81;;;4.89;59.58
45323;BME280;31382;50.200;8.674;2023-03-04T04:52:41;100974.53;;;4.86;59.88
45323;BME280;31382;50.200;8.674;2023-03-04T04:57:42;100973.09;;;4.82;59.98
45323;BME280;31382;50.200;8.674;2023-03-04T05:02:44;100973.72;;;4.85;59.63
45323;BME280;31382;50.200;8.674;2023-03-04T05:07:45;100974.09;;;4.92;59.97
45323;BME280;31382;50.200;8.674;2023-03-04T05:12:47;100976.59;;;4.93;59.70
45323;BME280;31382;50.200;8.674;2023-03-04T05:17:49;100972.88;;;4.96;59.84
45323;BME280;31382;50.200;8.674;2023-03-04T05:22:51;100974.19;;;5.02;59.55
45323;BME280;31382;50.200;8.674;2023-03-04T05:27:52;100979.00;;;5.08;59.83
45323;BME280;31382;50.200;8.674;2023-03-04T05:32:54;100979.59;;;5.11;59.70
45323;BME280;31382;50.200;8.674;2023-03-04T05:37:55;100979.00;;;5.08;60.00
45323;BME280;31382;50.200;8.674;2023-03-04T05:42:56;100978.97;;;5.19;60.02
45323;BME280;31382;50.200;8.674;2023-03-04T05:47:58;100972.28;;;5.25;59.70
45323;BME280;31382;50.200;8.674;2023-03-04T05:53:00;100976.66;;;5.26;59.73
45323;BME280;31382;50.200;8.674;2023-03-04T05:58:01;100980.66;;;5.31;59.68
45323;BME280;31382;50.200;8.674;2023-03-04T06:03:03;100975.31;;;5.31;59.52
45323;BME280;31382;50.200;8.674;2023-03-04T06:08:04;100989.19;;;5.46;59.38
45323;BME280;31382;50.200;8.674;2023-03-04T06:13:06;100989.78;;;5.50;58.76
45323;BME280;31382;50.200;8.674;2023-03-04T06:18:08;100991.69;;;5.59;58.97
45323;BME280;31382;50.200;8.674;2023-03-04T06:23:09;101002.03;;;5.73;58.28
45323;BME280;31382;50.200;8.674;2023-03-04T06:28:11;101006.03;;;5.79;58.24
45323;BME280;31382;50.200;8.674;2023-03-04T06:33:12;101007.56;;;5.82;58.17
45323;BME280;31382;50.200;8.674;2023-03-04T06:38:14;101014.81;;;5.91;57.85
45323;BME280;31382;50.200;8.674;2023-03-04T06:43:15;101023.63;;;6.03;57.83
45323;BME280;31382;50.200;8.674;2023-03-04T06:48:17;101021.09;;;6.01;57.63
45323;BME280;31382;50.200;8.674;2023-03-04T06:53:18;101031.25;;;6.07;57.46
45323;BME280;31382;50.200;8.674;2023-03-04T06:58:19;101032.47;;;6.03;57.49
45323;BME280;31382;50.200;8.674;2023-03-04T07:03:21;101029.22;;;6.00;57.40
45323;BME280;31382;50.200;8.674;2023-03-04T07:08:22;101033.59;;;6.01;57.83
45323;BME280;31382;50.200;8.674;2023-03-04T07:13:24;101027.63;;;6.08;57.13
45323;BME280;31382;50.200;8.674;2023-03-04T07:18:25;101037.25;;;6.21;57.13
45323;BME280;31382;50.200;8.674;2023-03-04T07:23:27;101037.19;;;6.32;57.02
45323;BME280;31382;50.200;8.674;2023-03-04T07:28:28;101034.69;;;6.40;56.70
45323;BME280;31382;50.200;8.674;2023-03-04T07:33:30;101049.06;;;6.49;56.74
45323;BME280;31382;50.200;8.674;2023-03-04T07:38:31;101049.72;;;6.41;57.18
45323;BME280;31382;50.200;8.674;2023-03-04T07:43:33;101049.97;;;6.59;57.04
45323;BME280;31382;50.200;8.674;2023-03-04T07:48:34;101047.75;;;6.43;57.31
45323;BME280;31382;50.200;8.674;2023-03-04T07:53:38;101043.41;;;6.42;57.27
45323;BME280;31382;50.200;8.674;2023-03-04T07:58:40;101046.69;;;6.55;56.93
45323;BME280;31382;50.200;8.674;2023-03-04T08:03:42;101046.81;;;6.75;56.50
45323;BME280;31382;50.200;8.674;2023-03-04T08:08:44;101041.78;;;6.82;55.76
45323;BME280;31382;50.200;8.674;2023-03-04T08:13:47;101053.06;;;6.85;55.17
45323;BME280;31382;50.200;8.674;2023-03-04T08:18:51;101053.06;;;6.85;55.75
45323;BME280;31382;50.200;8.674;2023-03-04T08:23:53;101052.34;;;6.83;55.42
45323;BME280;31382;50.200;8.674;2023-03-04T08:28:55;101061.16;;;6.74;56.18
45323;BME280;31382;50.200;8.674;2023-03-04T08:33:57;101070.63;;;6.88;55.30
45323;BME280;31382;50.200;8.674;2023-03-04T08:38:59;101061.78;;;6.87;55.57
45323;BME280;31382;50.200;8.674;2023-03-04T08:44:00;101070.00;;;7.05;54.98
45323;BME280;31382;50.200;8.674;2023-03-04T08:49:02;101064.88;;;6.92;55.36
45323;BME280;31382;50.200;8.674;2023-03-04T08:54:04;101061.59;;;7.20;54.53
45323;BME280;31382;50.200;8.674;2023-03-04T08:59:06;101070.06;;;7.34;54.69
45323;BME280;31382;50.200;8.674;2023-03-04T09:04:07;101067.94;;;7.28;53.98
45323;BME280;31382;50.200;8.674;2023-03-04T09:09:09;101057.59;;;7.45;54.45
45323;BME280;31382;50.200;8.674;2023-03-04T09:14:10;101065.19;;;7.59;53.75
45323;BME280;31382;50.200;8.674;2023-03-04T09:19:12;101060.63;;;7.30;54.17
45323;BME280;31382;50.200;8.674;2023-03-04T09:24:13;101056.16;;;7.41;54.20
45323;BME280;31382;50.200;8.674;2023-03-04T09:29:14;101063.72;;;7.26;54.32
45323;BME280;31382;50.200;8.674;2023-03-04T09:34:16;101061.09;;;7.45;53.32
45323;BME280;31382;50.200;8.674;2023-03-04T09:39:17;101062.53;;;7.59;53.84
45323;BME280;31382;50.200;8.674;2023-03-04T09:44:28;101055.94;;;7.83;53.51
45323;BME280;31382;50.200;8.674;2023-03-04T09:49:31;101059.31;;;7.85;52.99
45323;BME280;31382;50.200;8.674;2023-03-04T10:05:13;101052.25;;;7.84;52.95
45323;BME280;31382;50.200;8.674;2023-03-04T10:10:37;101051.28;;;7.75;52.84
45323;BME280;31382;50.200;8.674;2023-03-04T10:15:42;101049.03;;;7.70;52.55
45323;BME280;31382;50.200;8.674;2023-03-04T10:26:12;101039.16;;;8.10;52.26
45323;BME280;31382;50.200;8.674;2023-03-04T10:31:21;101041.66;;;8.11;52.45
45323;BME280;31382;50.200;8.674;2023-03-04T10:41:30;101023.44;;;8.44;52.01
45323;BME280;31382;50.200;8.674;2023-03-04T10:46:36;101020.44;;;7.90;52.21
45323;BME280;31382;50.200;8.674;2023-03-04T10:52:01;101022.22;;;8.09;52.08
45323;BME280;31382;50.200;8.674;2023-03-04T10:57:10;101016.00;;;8.28;51.38
45323;BME280;31382;50.200;8.674;2023-03-04T11:07:15;101004.56;;;8.46;51.58
45323;BME280;31382;50.200;8.674;2023-03-04T11:12:20;101009.88;;;8.56;51.72
45323;BME280;31382;50.200;8.674;2023-03-04T11:17:46;101003.84;;;8.53;51.85
45323;BME280;31382;50.200;8.674;2023-03-04T11:22:49;100994.19;;;8.61;51.54
45323;BME280;31382;50.200;8.674;2023-03-04T11:27:57;100990.03;;;8.48;50.85
45323;BME280;31382;50.200;8.674;2023-03-04T11:33:23;100987.09;;;8.42;51.60
45323;BME280;31382;50.200;8.674;2023-03-04T11:38:35;100981.44;;;8.72;50.53
45323;BME280;31382;50.200;8.674;2023-03-04T11:43:44;100985.94;;;8.82;50.89
45323;BME280;31382;50.200;8.674;2023-03-04T11:54:27;100978.00;;;9.08;50.25
45323;BME280;31382;50.200;8.674;2023-03-04T11:59:51;100973.19;;;9.11;50.22
45323;BME280;31382;50.200;8.674;2023-03-04T12:05:14;100962.63;;;9.10;50.35
45323;BME280;31382;50.200;8.674;2023-03-04T12:31:30;100927.75;;;9.10;49.81
45323;BME280;31382;50.200;8.674;2023-03-04T12:47:48;100892.81;;;9.20;48.96
45323;BME280;31382;50.200;8.674;2023-03-04T12:53:10;100891.50;;;9.24;48.85
45323;BME280;31382;50.200;8.674;2023-03-04T12:58:17;100887.06;;;9.50;48.16
45323;BME280;31382;50.200;8.674;2023-03-04T13:08:30;100876.06;;;9.44;47.98
45323;BME280;31382;50.200;8.674;2023-03-04T13:18:37;100857.38;;;9.52;47.93
45323;BME280;31382;50.200;8.674;2023-03-04T13:23:40;100855.44;;;9.62;47.91
45323;BME280;31382;50.200;8.674;2023-03-04T13:28:42;100849.47;;;9.50;48.20
45323;BME280;31382;50.200;8.674;2023-03-04T13:33:47;100848.06;;;9.64;48.36
45323;BME280;31382;50.200;8.674;2023-03-04T13:39:03;100842.38;;;9.67;47.92
45323;BME280;31382;50.200;8.674;2023-03-04T13:55:31;100823.84;;;9.82;47.86
45323;BME280;31382;50.200;8.674;2023-03-04T14:06:16;100824.16;;;9.53;48.31
45323;BME280;31382;50.200;8.674;2023-03-04T14:11:34;100811.81;;;9.60;48.47
45323;BME280;31382;50.200;8.674;2023-03-04T14:16:54;100817.03;;;9.44;48.58
45323;BME280;31382;50.200;8.674;2023-03-04T14:21:56;100807.72;;;9.48;48.71
45323;BME280;31382;50.200;8.674;2023-03-04T14:27:06;100807.38;;;9.51;48.84
45323;BME280;31382;50.200;8.674;2023-03-04T14:32:11;100801.22;;;9.32;49.52
45323;BME280;31382;50.200;8.674;2023-03-04T14:37:25;100795.28;;;9.47;49.27
45323;BME280;31382;50.200;8.674;2023-03-04T14:42:36;100790.59;;;9.49;49.76
45323;BME280;31382;50.200;8.674;2023-03-04T14:47:40;100783.28;;;9.33;50.00
45323;BME280;31382;50.200;8.674;2023-03-04T14:52:47;100780.34;;;9.44;50.11
45323;BME280;31382;50.200;8.674;2023-03-04T14:57:54;100778.06;;;9.31;50.59
45323;BME280;31382;50.200;8.674;2023-03-04T15:03:18;100778.75;;;9.33;50.42
45323;BME280;31382;50.200;8.674;2023-03-04T15:08:28;100773.03;;;9.55;50.00
45323;BME280;31382;50.200;8.674;2023-03-04T15:13:48;100774.44;;;9.41;50.39
45323;BME280;31382;50.200;8.674;2023-03-04T15:19:24;100759.91;;;9.25;50.72
45323;BME280;31382;50.200;8.674;2023-03-04T15:24:26;100765.81;;;9.29;51.08
45323;BME280;31382;50.200;8.674;2023-03-04T15:29:27;100765.72;;;9.39;50.58
45323;BME280;31382;50.200;8.674;2023-03-04T15:34:29;100758.00;;;9.44;50.58
45323;BME280;31382;50.200;8.674;2023-03-04T15:39:31;100764.44;;;9.51;50.80
45323;BME280;31382;50.200;8.674;2023-03-04T15:44:33;100757.03;;;9.45;50.64
45323;BME280;31382;50.200;8.674;2023-03-04T15:49:34;100765.66;;;9.30;51.34
45323;BME280;31382;50.200;8.674;2023-03-04T15:54:35;100751.34;;;9.22;51.63
45323;BME280;31382;50.200;8.674;2023-03-04T15:59:37;100759.03;;;9.17;51.79
45323;BME280;31382;50.200;8.674;2023-03-04T16:04:38;100751.75;;;9.09;52.38
45323;BME280;31382;50.200;8.674;2023-03-04T16:09:40;100758.44;;;9.05;52.13
45323;BME280;31382;50.200;8.674;2023-03-04T16:14:41;100769.63;;;9.00;52.31
45323;BME280;31382;50.200;8.674;2023-03-04T16:19:45;100755.06;;;9.03;52.91
45323;BME280;31382;50.200;8.674;2023-03-04T16:24:46;100751.28;;;9.13;52.77
45323;BME280;31382;50.200;8.674;2023-03-04T16:29:48;100739.38;;;9.16;52.49
45323;BME280;31382;50.200;8.674;2023-03-04T16:34:49;100747.22;;;9.09;53.27
45323;BME280;31382;50.200;8.674;2023-03-04T16:39:51;100755.75;;;9.05;53.00
45323;BME280;31382;50.200;8.674;2023-03-04T16:44:53;100746.84;;;9.04;52.97
45323;BME280;31382;50.200;8.674;2023-03-04T16:49:55;100744.59;;;8.91;53.66
45323;BME280;31382;50.200;8.674;2023-03-04T16:54:58;100748.50;;;8.79;54.02
45323;BME280;31382;50.200;8.674;2023-03-04T17:00:00;100749.19;;;8.81;54.32
45323;BME280;31382;50.200;8.674;2023-03-04T17:05:02;100757.53;;;8.78;54.59
45323;BME280;31382;50.200;8.674;2023-03-04T17:10:04;100749.13;;;8.73;55.12
45323;BME280;31382;50.200;8.674;2023-03-04T17:15:08;100757.31;;;8.71;54.99
45323;BME280;31382;50.200;8.674;2023-03-04T17:20:13;100752.03;;;8.80;54.59
45323;BME280;31382;50.200;8.674;2023-03-04T17:25:14;100760.28;;;8.68;55.18
45323;BME280;31382;50.200;8.674;2023-03-04T17:30:16;100767.34;;;8.51;56.43
45323;BME280;31382;50.200;8.674;2023-03-04T17:35:18;100771.56;;;8.54;56.28
45323;BME280;31382;50.200;8.674;2023-03-04T17:40:19;100769.84;;;8.53;56.60
45323;BME280;31382;50.200;8.674;2023-03-04T17:45:21;100779.13;;;8.59;56.20
45323;BME280;31382;50.200;8.674;2023-03-04T17:50:22;100778.50;;;8.65;56.54
45323;BME280;31382;50.200;8.674;2023-03-04T17:55:25;100777.75;;;8.54;57.03
45323;BME280;31382;50.200;8.674;2023-03-04T18:00:26;100772.25;;;8.56;56.73
45323;BME280;31382;50.200;8.674;2023-03-04T18:05:28;100764.28;;;8.46;57.58
45323;BME280;31382;50.200;8.674;2023-03-04T18:10:29;100756.25;;;8.46;57.57
45323;BME280;31382;50.200;8.674;2023-03-04T18:15:30;100755.56;;;8.44;57.09
45323;BME280;31382;50.200;8.674;2023-03-04T18:20:32;100759.38;;;8.42;57.71
45323;BME280;31382;50.200;8.674;2023-03-04T18:25:33;100756.75;;;8.32;58.71
45323;BME280;31382;50.200;8.674;2023-03-04T18:30:36;100755.59;;;8.34;58.01
45323;BME280;31382;50.200;8.674;2023-03-04T18:35:38;100760.56;;;8.29;58.32
45323;BME280;31382;50.200;8.674;2023-03-04T18:40:40;100755.59;;;8.34;58.76
45323;BME280;31382;50.200;8.674;2023-03-04T18:45:42;100751.44;;;8.22;59.14
45323;BME280;31382;50.200;8.674;2023-03-04T18:50:43;100749.31;;;8.26;59.00
45323;BME280;31382;50.200;8.674;2023-03-04T18:55:45;100747.31;;;8.28;58.62
45323;BME280;31382;50.200;8.674;2023-03-04T19:00:47;100742.81;;;8.28;58.16
45323;BME280;31382;50.200;8.674;2023-03-04T19:05:48;100746.84;;;8.32;58.78
45323;BME280;31382;50.200;8.674;2023-03-04T19:10:50;100752.13;;;8.24;58.92
45323;BME280;31382;50.200;8.674;2023-03-04T19:15:53;100752.00;;;8.26;58.79
45323;BME280;31382;50.200;8.674;2023-03-04T19:20:58;100751.66;;;8.29;59.04
45323;BME280;31382;50.200;8.674;2023-03-04T19:25:59;100760.47;;;8.39;58.75
45323;BME280;31382;50.200;8.674;2023-03-04T19:31:05;100754.41;;;8.47;58.53
45323;BME280;31382;50.200;8.674;2023-03-04T19:36:08;100745.75;;;8.53;58.28
45323;BME280;31382;50.200;8.674;2023-03-04T19:41:12;100752.72;;;8.46;58.53
45323;BME280;31382;50.200;8.674;2023-03-04T19:46:14;100756.81;;;8.40;59.35
45323;BME280;31382;50.200;8.674;2023-03-04T19:51:18;100748.66;;;8.42;58.83
45323;BME280;31382;50.200;8.674;2023-03-04T19:56:22;100750.59;;;8.49;59.13
45323;BME280;31382;50.200;8.674;2023-03-04T20:01:29;100748.75;;;8.50;58.39
45323;BME280;31382;50.200;8.674;2023-03-04T20:06:34;100750.34;;;8.61;58.42
45323;BME280;31382;50.200;8.674;2023-03-04T20:11:36;100744.28;;;8.59;58.25
45323;BME280;31382;50.200;8.674;2023-03-04T20:16:47;100745.31;;;8.58;58.78
45323;BME280;31382;50.200;8.674;2023-03-04T20:21:48;100737.47;;;8.64;58.50
45323;BME280;31382;50.200;8.674;2023-03-04T20:26:50;100736.44;;;8.57;59.35
45323;BME280;31382;50.200;8.674;2023-03-04T20:31:52;100741.53;;;8.68;58.30
45323;BME280;31382;50.200;8.674;2023-03-04T20:36:53;100746.66;;;8.80;58.07
45323;BME280;31382;50.200;8.674;2023-03-04T20:41:58;100740.22;;;8.72;58.40
45323;BME280;31382;50.200;8.674;2023-03-04T20:46:59;100745.84;;;8.61;58.84
45323;BME280;31382;50.200;8.674;2023-03-04T20:52:02;100747.38;;;8.64;58.78
45323;BME280;31382;50.200;8.674;2023-03-04T20:57:07;100750.53;;;8.59;58.56
45323;BME280;31382;50.200;8.674;2023-03-04T21:02:13;100746.81;;;8.60;59.21
45323;BME280;31382;50.200;8.674;2023-03-04T21:07:15;100750.03;;;8.64;58.90
45323;BME280;31382;50.200;8.674;2023-03-04T21:12:16;100750.19;;;8.62;59.07
45323;BME280;31382;50.200;8.674;2023-03-04T21:17:18;100739.25;;;8.56;59.01
45323;BME280;31382;50.200;8.674;2023-03-04T21:22:19;100730.91;;;8.59;59.18
45323;BME280;31382;50.200;8.674;2023-03-04T21:27:21;100747.25;;;8.38;59.99
45323;BME280;31382;50.200;8.674;2023-03-04T21:32:24;100732.91;;;8.29;60.41
45323;BME280;31382;50.200;8.674;2023-03-04T21:37:26;100731.59;;;8.43;59.22
45323;BME280;31382;50.200;8.674;2023-03-04T21:42:28;100728.91;;;8.43;59.76
45323;BME280;31382;50.200;8.674;2023-03-04T21:47:29;100722.25;;;8.47;59.17
45323;BME280;31382;50.200;8.674;2023-03-04T21:52:31;100723.28;;;8.36;59.29
45323;BME280;31382;50.200;8.674;2023-03-04T21:57:32;100721.84;;;8.24;60.10
45323;BME280;31382;50.200;8.674;2023-03-04T22:02:33;100718.22;;;8.15;60.84
45323;BME280;31382;50.200;8.674;2023-03-04T22:07:35;100714.22;;;8.01;60.22
45323;BME280;31382;50.200;8.674;2023-03-04T22:12:36;100708.25;;;8.07;60.30
45323;BME280;31382;50.200;8.674;2023-03-04T22:17:37;100702.28;;;8.13;59.92
45323;BME280;31382;50.200;8.674;2023-03-04T22:22:39;100704.22;;;8.21;59.96
45323;BME280;31382;50.200;8.674;2023-03-04T22:27:40;100711.81;;;8.26;59.14
45323;BME280;31382;50.200;8.674;2023-03-04T22:32:45;100703.09;;;8.24;59.66
45323;BME280;31382;50.200;8.674;2023-03-04T22:37:48;100712.94;;;8.23;59.66
45323;BME280;31382;50.200;8.674;2023-03-04T22:42:49;100712.56;;;8.18;59.61
45323;BME280;31382;50.200;8.674;2023-03-04T22:47:51;100706.91;;;8.21;58.75
45323;BME280;31382;50.200;8.674;2023-03-04T22:52:53;100705.84;;;8.32;59.13
45323;BME280;31382;50.200;8.674;2023-03-04T22:57:54;100698.31;;;8.45;58.36
45323;BME280;31382;50.200;8.674;2023-03-04T23:02:56;100704.16;;;8.31;58.33
45323;BME280;31382;50.200;8.674;2023-03-04T23:07:58;100705.31;;;8.28;59.11
45323;BME280;31382;50.200;8.674;2023-03-04T23:12:59;100708.13;;;8.27;58.30
45323;BME280;31382;50.200;8.674;2023-03-04T23:18:01;100700.56;;;8.22;59.31
45323;BME280;31382;50.200;8.674;2023-03-04T23:23:02;100698.78;;;8.31;59.04
45323;BME280;31382;50.200;8.674;2023-03-04T23:28:04;100693.00;;;8.36;58.76
45323;BME280;31382;50.200;8.674;2023-03-04T23:33:05;100706.66;;;8.14;58.51
45323;BME280;31382;50.200;8.674;2023-03-04T23:38:06;100707.75;;;8.04;59.04
45323;BME280;31382;50.200;8.674;2023-03-04T23:43:08;100693.97;;;7.99;59.29
45323;BME280;31382;50.200;8.674;2023-03-04T23:48:09;100699.59;;;7.95;58.54
45323;BME280;31382;50.200;8.674;2023-03-04T23:53:11;100697.09;;;7.94;58.26
45323;BME280;31382;50.200;8.674;2023-03-04T23:58:12;100687.69;;;7.90;58.46
